sensor_id;sensor_type;location;lat;lon;timestamp;P1;durP1;ratioP1;P2;durP2;ratioP2
9094;SDS011;4583;49.796;9.902;2023-04-24T00:09:24;3.23;;;1.43;;
9094;SDS011;4583;49.796;9.902;2023-04-24T00:19:25;1.37;;;1.20;;
9094;SDS011;4583;49.796;9.902;2023-04-24T00:29:27;2.00;;;1.10;;
9094;SDS011;4583;49.796;9.902;2023-04-24T00:39:29;1.90;;;1.00;;
9094;SDS011;4583;49.796;9.902;2023-04-24T00:49:31;1.20;;;1.03;;
9094;SDS011;4583;49.796;9.902;2023-04-24T00:59:33;1.73;;;1.00;;
9094;SDS011;4583;49.796;9.902;2023-04-24T01:09:35;2.60;;;1.27;;
9094;SDS011;4583;49.796;9.902;2023-04-24T01:19:38;2.00;;;1.13;;
9094;SDS011;4583;49.796;9.902;2023-04-24T01:29:40;2.33;;;1.20;;
9094;SDS011;4583;49.796;9.902;2023-04-24T01:39:43;3.23;;;1.00;;
9094;SDS011;4583;49.796;9.902;2023-04-24T01:49:45;2.60;;;1.17;;
9094;SDS011;4583;49.796;9.902;2023-04-24T01:59:48;1.20;;;1.03;;
9094;SDS011;4583;49.796;9.902;2023-04-24T02:09:51;4.00;;;1.10;;
9094;SDS011;4583;49.796;9.902;2023-04-24T02:19:53;1.10;;;1.00;;
9094;SDS011;4583;49.796;9.902;2023-04-24T02:29:54;2.90;;;0.97;;
9094;SDS011;4583;49.796;9.902;2023-04-24T02:39:56;1.47;;;0.90;;
9094;SDS011;4583;49.796;9.902;2023-04-24T02:49:58;2.07;;;1.03;;
9094;SDS011;4583;49.796;9.902;2023-04-24T02:59:59;2.57;;;0.97;;
9094;SDS011;4583;49.796;9.902;2023-04-24T03:10:01;1.63;;;1.13;;
9094;SDS011;4583;49.796;9.902;2023-04-24T03:20:03;1.00;;;0.90;;
9094;SDS011;4583;49.796;9.902;2023-04-24T03:30:07;3.20;;;1.10;;
9094;SDS011;4583;49.796;9.902;2023-04-24T03:40:09;3.37;;;1.30;;
9094;SDS011;4583;49.796;9.902;2023-04-24T03:50:11;2.40;;;1.10;;
9094;SDS011;4583;49.796;9.902;2023-04-24T04:00:13;1.93;;;0.93;;
9094;SDS011;4583;49.796;9.902;2023-04-24T04:10:15;2.27;;;1.10;;
9094;SDS011;4583;49.796;9.902;2023-04-24T04:20:18;4.83;;;1.10;;
9094;SDS011;4583;49.796;9.902;2023-04-24T04:30:20;2.60;;;1.10;;
9094;SDS011;4583;49.796;9.902;2023-04-24T04:40:22;4.53;;;1.30;;
9094;SDS011;4583;49.796;9.902;2023-04-24T04:50:24;6.17;;;1.30;;
9094;SDS011;4583;49.796;9.902;2023-04-24T05:00:26;3.33;;;1.20;;
9094;SDS011;4583;49.796;9.902;2023-04-24T05:10:28;4.60;;;1.30;;
9094;SDS011;4583;49.796;9.902;2023-04-24T05:20:30;1.30;;;1.20;;
9094;SDS011;4583;49.796;9.902;2023-04-24T05:30:31;1.97;;;1.33;;
9094;SDS011;4583;49.796;9.902;2023-04-24T05:40:33;3.17;;;1.43;;
9094;SDS011;4583;49.796;9.902;2023-04-24T05:50:35;1.23;;;1.13;;
9094;SDS011;4583;49.796;9.902;2023-04-24T06:00:37;4.17;;;2.40;;
9094;SDS011;4583;49.796;9.902;2023-04-24T06:10:42;2.30;;;1.40;;
9094;SDS011;4583;49.796;9.902;2023-04-24T06:20:47;3.33;;;1.30;;
9094;SDS011;4583;49.796;9.902;2023-04-24T06:30:49;2.33;;;1.50;;
9094;SDS011;4583;49.796;9.902;2023-04-24T06:40:50;2.30;;;1.60;;
9094;SDS011;4583;49.796;9.902;2023-04-24T06:50:52;2.53;;;1.70;;
9094;SDS011;4583;49.796;9.902;2023-04-24T07:00:54;3.27;;;1.70;;
9094;SDS011;4583;49.796;9.902;2023-04-24T07:10:56;3.20;;;1.90;;
9094;SDS011;4583;49.796;9.902;2023-04-24T07:20:58;6.13;;;2.20;;
9094;SDS011;4583;49.796;9.902;2023-04-24T07:30:59;5.63;;;3.40;;
9094;SDS011;4583;49.796;9.902;2023-04-24T07:41:01;8.57;;;2.07;;
9094;SDS011;4583;49.796;9.902;2023-04-24T07:51:03;2.50;;;2.30;;
9094;SDS011;4583;49.796;9.902;2023-04-24T08:01:06;4.93;;;2.00;;
9094;SDS011;4583;49.796;9.902;2023-04-24T08:11:07;2.77;;;2.17;;
9094;SDS011;4583;49.796;9.902;2023-04-24T08:21:09;4.60;;;2.10;;
9094;SDS011;4583;49.796;9.902;2023-04-24T08:31:12;3.10;;;2.10;;
9094;SDS011;4583;49.796;9.902;2023-04-24T08:41:14;2.57;;;2.23;;
9094;SDS011;4583;49.796;9.902;2023-04-24T08:51:17;2.73;;;2.07;;
9094;SDS011;4583;49.796;9.902;2023-04-24T09:01:20;6.07;;;4.50;;
9094;SDS011;4583;49.796;9.902;2023-04-24T09:11:22;1.70;;;1.30;;
9094;SDS011;4583;49.796;9.902;2023-04-24T09:21:26;1.60;;;1.30;;
9094;SDS011;4583;49.796;9.902;2023-04-24T09:31:34;1.70;;;1.33;;
9094;SDS011;4583;49.796;9.902;2023-04-24T09:41:43;2.90;;;1.50;;
9094;SDS011;4583;49.796;9.902;2023-04-24T09:51:53;5.03;;;1.63;;
9094;SDS011;4583;49.796;9.902;2023-04-24T10:02:16;1.60;;;1.50;;
9094;SDS011;4583;49.796;9.902;2023-04-24T10:12:20;3.40;;;1.80;;
9094;SDS011;4583;49.796;9.902;2023-04-24T10:22:22;1.97;;;1.57;;
9094;SDS011;4583;49.796;9.902;2023-04-24T10:32:25;2.50;;;2.10;;
9094;SDS011;4583;49.796;9.902;2023-04-24T10:42:27;3.17;;;1.87;;
9094;SDS011;4583;49.796;9.902;2023-04-24T10:52:45;2.93;;;2.40;;
9094;SDS011;4583;49.796;9.902;2023-04-24T11:02:48;2.53;;;2.33;;
9094;SDS011;4583;49.796;9.902;2023-04-24T11:12:52;5.13;;;2.10;;
9094;SDS011;4583;49.796;9.902;2023-04-24T11:22:54;3.93;;;2.70;;
9094;SDS011;4583;49.796;9.902;2023-04-24T11:32:56;5.97;;;3.63;;
9094;SDS011;4583;49.796;9.902;2023-04-24T11:43:04;3.10;;;2.67;;
9094;SDS011;4583;49.796;9.902;2023-04-24T11:53:08;5.97;;;2.40;;
9094;SDS011;4583;49.796;9.902;2023-04-24T12:03:10;3.57;;;1.73;;
9094;SDS011;4583;49.796;9.902;2023-04-24T12:13:13;2.60;;;1.60;;
9094;SDS011;4583;49.796;9.902;2023-04-24T12:23:15;2.00;;;1.50;;
9094;SDS011;4583;49.796;9.902;2023-04-24T12:33:19;1.80;;;1.40;;
9094;SDS011;4583;49.796;9.902;2023-04-24T12:43:21;1.63;;;1.23;;
9094;SDS011;4583;49.796;9.902;2023-04-24T12:53:23;2.80;;;1.80;;
9094;SDS011;4583;49.796;9.902;2023-04-24T13:03:27;1.40;;;1.30;;
9094;SDS011;4583;49.796;9.902;2023-04-24T13:13:29;2.20;;;1.83;;
9094;SDS011;4583;49.796;9.902;2023-04-24T13:23:31;2.33;;;1.80;;
9094;SDS011;4583;49.796;9.902;2023-04-24T13:33:33;4.87;;;2.60;;
9094;SDS011;4583;49.796;9.902;2023-04-24T13:43:35;3.57;;;2.00;;
9094;SDS011;4583;49.796;9.902;2023-04-24T13:53:37;2.10;;;1.90;;
9094;SDS011;4583;49.796;9.902;2023-04-24T14:03:41;2.83;;;1.43;;
9094;SDS011;4583;49.796;9.902;2023-04-24T14:13:45;2.10;;;1.90;;
9094;SDS011;4583;49.796;9.902;2023-04-24T14:23:47;3.20;;;1.77;;
9094;SDS011;4583;49.796;9.902;2023-04-24T14:33:49;3.63;;;1.70;;
9094;SDS011;4583;49.796;9.902;2023-04-24T14:43:50;3.05;;;1.75;;
9094;SDS011;4583;49.796;9.902;2023-04-24T14:53:52;6.57;;;2.20;;
9094;SDS011;4583;49.796;9.902;2023-04-24T15:03:54;3.70;;;2.07;;
9094;SDS011;4583;49.796;9.902;2023-04-24T15:13:56;3.07;;;2.37;;
9094;SDS011;4583;49.796;9.902;2023-04-24T15:23:58;5.87;;;3.37;;
9094;SDS011;4583;49.796;9.902;2023-04-24T15:34:00;3.40;;;2.43;;
9094;SDS011;4583;49.796;9.902;2023-04-24T15:44:02;3.53;;;2.97;;
9094;SDS011;4583;49.796;9.902;2023-04-24T15:54:05;5.40;;;2.67;;
9094;SDS011;4583;49.796;9.902;2023-04-24T16:04:06;5.23;;;2.60;;
9094;SDS011;4583;49.796;9.902;2023-04-24T16:14:08;6.77;;;3.33;;
9094;SDS011;4583;49.796;9.902;2023-04-24T16:24:11;4.33;;;2.40;;
9094;SDS011;4583;49.796;9.902;2023-04-24T16:34:12;4.17;;;2.80;;
9094;SDS011;4583;49.796;9.902;2023-04-24T16:44:14;3.43;;;2.60;;
9094;SDS011;4583;49.796;9.902;2023-04-24T16:54:16;5.17;;;3.00;;
9094;SDS011;4583;49.796;9.902;2023-04-24T17:04:18;2.87;;;2.30;;
9094;SDS011;4583;49.796;9.902;2023-04-24T17:14:19;5.30;;;2.60;;
9094;SDS011;4583;49.796;9.902;2023-04-24T17:24:23;2.73;;;2.43;;
9094;SDS011;4583;49.796;9.902;2023-04-24T17:34:24;3.93;;;2.53;;
9094;SDS011;4583;49.796;9.902;2023-04-24T17:44:26;3.30;;;2.90;;
9094;SDS011;4583;49.796;9.902;2023-04-24T17:54:28;5.33;;;2.80;;
9094;SDS011;4583;49.796;9.902;2023-04-24T18:04:29;5.20;;;3.10;;
9094;SDS011;4583;49.796;9.902;2023-04-24T18:14:32;4.63;;;3.00;;
9094;SDS011;4583;49.796;9.902;2023-04-24T18:24:33;6.90;;;2.90;;
9094;SDS011;4583;49.796;9.902;2023-04-24T18:34:36;4.40;;;3.10;;
9094;SDS011;4583;49.796;9.902;2023-04-24T18:44:37;4.03;;;3.23;;
9094;SDS011;4583;49.796;9.902;2023-04-24T18:54:41;5.70;;;3.37;;
9094;SDS011;4583;49.796;9.902;2023-04-24T19:04:43;5.00;;;3.60;;
9094;SDS011;4583;49.796;9.902;2023-04-24T19:14:44;6.50;;;3.80;;
9094;SDS011;4583;49.796;9.902;2023-04-24T19:24:46;7.07;;;3.60;;
9094;SDS011;4583;49.796;9.902;2023-04-24T19:34:48;4.70;;;3.60;;
9094;SDS011;4583;49.796;9.902;2023-04-24T19:44:50;6.70;;;3.00;;
9094;SDS011;4583;49.796;9.902;2023-04-24T19:54:52;4.53;;;3.20;;
9094;SDS011;4583;49.796;9.902;2023-04-24T20:04:54;4.57;;;3.13;;
9094;SDS011;4583;49.796;9.902;2023-04-24T20:14:56;3.93;;;3.00;;
9094;SDS011;4583;49.796;9.902;2023-04-24T20:24:58;4.07;;;3.40;;
9094;SDS011;4583;49.796;9.902;2023-04-24T20:35:00;6.97;;;3.50;;
9094;SDS011;4583;49.796;9.902;2023-04-24T20:45:02;6.30;;;3.60;;
9094;SDS011;4583;49.796;9.902;2023-04-24T20:55:04;3.33;;;3.03;;
9094;SDS011;4583;49.796;9.902;2023-04-24T21:05:07;5.07;;;3.70;;
9094;SDS011;4583;49.796;9.902;2023-04-24T21:15:09;4.67;;;3.87;;
9094;SDS011;4583;49.796;9.902;2023-04-24T21:25:11;6.93;;;5.07;;
9094;SDS011;4583;49.796;9.902;2023-04-24T21:35:13;8.27;;;4.27;;
9094;SDS011;4583;49.796;9.902;2023-04-24T21:45:14;4.83;;;4.00;;
9094;SDS011;4583;49.796;9.902;2023-04-24T21:55:16;5.10;;;3.90;;
9094;SDS011;4583;49.796;9.902;2023-04-24T22:05:18;5.03;;;3.77;;
9094;SDS011;4583;49.796;9.902;2023-04-24T22:15:20;5.23;;;3.83;;
9094;SDS011;4583;49.796;9.902;2023-04-24T22:25:22;5.23;;;3.80;;
9094;SDS011;4583;49.796;9.902;2023-04-24T22:35:23;5.00;;;3.77;;
9094;SDS011;4583;49.796;9.902;2023-04-24T22:45:25;6.20;;;3.53;;
9094;SDS011;4583;49.796;9.902;2023-04-24T22:55:27;4.60;;;3.57;;
9094;SDS011;4583;49.796;9.902;2023-04-24T23:05:29;4.30;;;3.90;;
9094;SDS011;4583;49.796;9.902;2023-04-24T23:15:31;4.50;;;3.50;;
9094;SDS011;4583;49.796;9.902;2023-04-24T23:25:33;4.10;;;3.50;;
9094;SDS011;4583;49.796;9.902;2023-04-24T23:35:35;3.80;;;3.30;;
9094;SDS011;4583;49.796;9.902;2023-04-24T23:45:36;6.43;;;3.03;;
9094;SDS011;4583;49.796;9.902;2023-04-24T23:55:38;5.63;;;3.50;;
